sensor_id;sensor_type;location;lat;lon;timestamp;pressure;altitude;pressure_sealevel;temperature;humidity
79527;BME280;68974;47.754;-3.364;2023-07-09T00:00:16;101781.91;;;18.98;82.74
79527;BME280;68974;47.754;-3.364;2023-07-09T00:02:43;101782.84;;;18.93;83.09
79527;BME280;68974;47.754;-3.364;2023-07-09T00:05:15;101787.44;;;19.12;82.38
79527;BME280;68974;47.754;-3.364;2023-07-09T00:07:42;101789.13;;;18.99;82.69
79527;BME280;68974;47.754;-3.364;2023-07-09T00:10:16;101786.22;;;19.04;82.82
79527;BME280;68974;47.754;-3.364;2023-07-09T00:12:42;101785.81;;;18.97;82.70
79527;BME280;68974;47.754;-3.364;2023-07-09T00:15:09;101785.94;;;18.92;82.82
79527;BME280;68974;47.754;-3.364;2023-07-09T00:17:35;101780.69;;;18.90;82.86
79527;BME280;68974;47.754;-3.364;2023-07-09T00:20:02;101777.91;;;18.90;82.83
79527;BME280;68974;47.754;-3.364;2023-07-09T00:22:29;101780.78;;;18.99;82.54
79527;BME280;68974;47.754;-3.364;2023-07-09T00:24:55;101785.00;;;18.96;82.55
79527;BME280;68974;47.754;-3.364;2023-07-09T00:27:23;101788.94;;;18.95;82.74
79527;BME280;68974;47.754;-3.364;2023-07-09T00:29:51;101783.88;;;18.97;82.11
79527;BME280;68974;47.754;-3.364;2023-07-09T00:32:19;101786.88;;;18.87;82.48
79527;BME280;68974;47.754;-3.364;2023-07-09T00:34:48;101788.13;;;18.81;82.75
79527;BME280;68974;47.754;-3.364;2023-07-09T00:37:18;101796.06;;;18.74;83.20
79527;BME280;68974;47.754;-3.364;2023-07-09T00:39:45;101793.69;;;18.68;83.09
79527;BME280;68974;47.754;-3.364;2023-07-09T00:42:19;101800.59;;;18.70;83.24
79527;BME280;68974;47.754;-3.364;2023-07-09T00:44:47;101800.41;;;18.67;83.36
79527;BME280;68974;47.754;-3.364;2023-07-09T00:49:43;101798.22;;;18.64;83.71
79527;BME280;68974;47.754;-3.364;2023-07-09T00:52:21;101795.97;;;18.66;83.75
79527;BME280;68974;47.754;-3.364;2023-07-09T00:54:49;101794.94;;;18.62;83.82
79527;BME280;68974;47.754;-3.364;2023-07-09T00:57:19;101796.38;;;18.59;83.84
79527;BME280;68974;47.754;-3.364;2023-07-09T00:59:50;101797.22;;;18.59;84.03
79527;BME280;68974;47.754;-3.364;2023-07-09T01:02:16;101789.59;;;18.65;83.77
79527;BME280;68974;47.754;-3.364;2023-07-09T01:04:48;101785.16;;;18.64;83.50
79527;BME280;68974;47.754;-3.364;2023-07-09T01:07:14;101794.53;;;18.68;83.46
79527;BME280;68974;47.754;-3.364;2023-07-09T01:09:41;101793.50;;;18.64;83.46
79527;BME280;68974;47.754;-3.364;2023-07-09T01:12:08;101790.81;;;18.59;83.84
79527;BME280;68974;47.754;-3.364;2023-07-09T01:14:35;101796.38;;;18.59;83.99
79527;BME280;68974;47.754;-3.364;2023-07-09T01:17:03;101798.03;;;18.60;83.95
79527;BME280;68974;47.754;-3.364;2023-07-09T01:19:36;101811.94;;;18.60;83.74
79527;BME280;68974;47.754;-3.364;2023-07-09T01:22:08;101813.72;;;18.56;83.69
79527;BME280;68974;47.754;-3.364;2023-07-09T01:27:37;101802.78;;;18.59;83.87
79527;BME280;68974;47.754;-3.364;2023-07-09T01:30:12;101805.75;;;18.63;83.97
79527;BME280;68974;47.754;-3.364;2023-07-09T01:32:40;101804.09;;;18.62;84.13
79527;BME280;68974;47.754;-3.364;2023-07-09T01:35:10;101802.78;;;18.59;84.33
79527;BME280;68974;47.754;-3.364;2023-07-09T01:37:37;101803.81;;;18.64;83.95
79527;BME280;68974;47.754;-3.364;2023-07-09T01:40:04;101804.84;;;18.81;83.03
79527;BME280;68974;47.754;-3.364;2023-07-09T01:42:31;101814.31;;;18.80;83.41
79527;BME280;68974;47.754;-3.364;2023-07-09T01:44:57;101823.38;;;18.72;83.51
79527;BME280;68974;47.754;-3.364;2023-07-09T01:47:23;101820.50;;;18.64;84.23
79527;BME280;68974;47.754;-3.364;2023-07-09T01:49:50;101822.06;;;18.56;84.65
79527;BME280;68974;47.754;-3.364;2023-07-09T01:52:16;101828.94;;;18.58;84.40
79527;BME280;68974;47.754;-3.364;2023-07-09T01:54:44;101825.13;;;18.54;84.82
79527;BME280;68974;47.754;-3.364;2023-07-09T01:59:40;101821.72;;;18.57;84.37
79527;BME280;68974;47.754;-3.364;2023-07-09T02:02:10;101823.09;;;18.60;84.31
79527;BME280;68974;47.754;-3.364;2023-07-09T02:04:48;101829.56;;;18.55;85.08
79527;BME280;68974;47.754;-3.364;2023-07-09T02:07:14;101833.38;;;18.59;84.64
79527;BME280;68974;47.754;-3.364;2023-07-09T02:09:40;101826.47;;;18.57;84.70
79527;BME280;68974;47.754;-3.364;2023-07-09T02:12:05;101826.59;;;18.66;84.79
79527;BME280;68974;47.754;-3.364;2023-07-09T02:14:31;101816.88;;;18.63;84.68
79527;BME280;68974;47.754;-3.364;2023-07-09T02:16:56;101826.06;;;18.64;85.20
79527;BME280;68974;47.754;-3.364;2023-07-09T02:19:22;101822.97;;;18.65;85.20
79527;BME280;68974;47.754;-3.364;2023-07-09T02:21:47;101828.00;;;18.63;85.37
79527;BME280;68974;47.754;-3.364;2023-07-09T02:24:13;101821.31;;;18.64;85.94
79527;BME280;68974;47.754;-3.364;2023-07-09T02:26:38;101825.56;;;18.75;85.41
79527;BME280;68974;47.754;-3.364;2023-07-09T02:29:03;101818.88;;;18.76;85.63
79527;BME280;68974;47.754;-3.364;2023-07-09T02:31:29;101817.81;;;18.72;85.68
79527;BME280;68974;47.754;-3.364;2023-07-09T02:33:56;101806.69;;;18.72;85.71
79527;BME280;68974;47.754;-3.364;2023-07-09T02:36:22;101809.88;;;18.66;85.93
79527;BME280;68974;47.754;-3.364;2023-07-09T02:38:47;101804.00;;;18.67;86.01
79527;BME280;68974;47.754;-3.364;2023-07-09T02:41:12;101798.22;;;18.77;85.81
79527;BME280;68974;47.754;-3.364;2023-07-09T02:43:38;101797.94;;;18.65;85.86
79527;BME280;68974;47.754;-3.364;2023-07-09T02:46:03;101789.88;;;18.64;86.50
79527;BME280;68974;47.754;-3.364;2023-07-09T02:48:28;101782.88;;;18.66;86.39
79527;BME280;68974;47.754;-3.364;2023-07-09T02:50:54;101774.31;;;18.76;85.29
79527;BME280;68974;47.754;-3.364;2023-07-09T02:53:19;101781.84;;;18.62;86.11
79527;BME280;68974;47.754;-3.364;2023-07-09T02:55:45;101778.38;;;18.56;86.37
79527;BME280;68974;47.754;-3.364;2023-07-09T02:58:10;101771.88;;;18.61;85.89
79527;BME280;68974;47.754;-3.364;2023-07-09T03:00:36;101773.09;;;18.55;86.17
79527;BME280;68974;47.754;-3.364;2023-07-09T03:03:02;101792.38;;;18.65;85.79
79527;BME280;68974;47.754;-3.364;2023-07-09T03:05:27;101801.75;;;18.55;86.18
79527;BME280;68974;47.754;-3.364;2023-07-09T03:07:52;101812.88;;;18.55;86.52
79527;BME280;68974;47.754;-3.364;2023-07-09T03:10:18;101809.88;;;18.52;86.47
79527;BME280;68974;47.754;-3.364;2023-07-09T03:12:43;101807.63;;;18.54;86.41
79527;BME280;68974;47.754;-3.364;2023-07-09T03:15:09;101804.00;;;18.53;86.70
79527;BME280;68974;47.754;-3.364;2023-07-09T03:17:34;101792.88;;;18.53;87.11
79527;BME280;68974;47.754;-3.364;2023-07-09T03:20:00;101795.94;;;18.52;87.47
79527;BME280;68974;47.754;-3.364;2023-07-09T03:22:25;101800.91;;;18.55;86.98
79527;BME280;68974;47.754;-3.364;2023-07-09T03:24:51;101799.53;;;18.52;87.08
79527;BME280;68974;47.754;-3.364;2023-07-09T03:27:16;101796.81;;;18.66;87.01
79527;BME280;68974;47.754;-3.364;2023-07-09T03:29:41;101796.81;;;18.66;87.06
79527;BME280;68974;47.754;-3.364;2023-07-09T03:32:07;101781.22;;;18.65;87.00
79527;BME280;68974;47.754;-3.364;2023-07-09T03:34:32;101789.38;;;18.62;87.20
79527;BME280;68974;47.754;-3.364;2023-07-09T03:36:58;101791.84;;;18.63;87.27
79527;BME280;68974;47.754;-3.364;2023-07-09T03:39:23;101796.38;;;18.59;87.02
79527;BME280;68974;47.754;-3.364;2023-07-09T03:41:48;101795.66;;;18.67;86.86
79527;BME280;68974;47.754;-3.364;2023-07-09T03:44:14;101817.22;;;18.75;86.51
79527;BME280;68974;47.754;-3.364;2023-07-09T03:46:39;101814.19;;;18.72;86.89
79527;BME280;68974;47.754;-3.364;2023-07-09T03:49:04;101821.94;;;18.61;87.22
79527;BME280;68974;47.754;-3.364;2023-07-09T03:51:30;101819.56;;;18.54;87.61
79527;BME280;68974;47.754;-3.364;2023-07-09T03:53:55;101823.88;;;18.47;88.21
79527;BME280;68974;47.754;-3.364;2023-07-09T03:56:20;101846.81;;;18.39;88.98
79527;BME280;68974;47.754;-3.364;2023-07-09T03:58:46;101841.25;;;18.39;89.08
79527;BME280;68974;47.754;-3.364;2023-07-09T04:01:11;101853.84;;;18.36;85.16
79527;BME280;68974;47.754;-3.364;2023-07-09T04:03:37;101859.41;;;18.36;85.37
79527;BME280;68974;47.754;-3.364;2023-07-09T04:06:02;101860.63;;;18.30;84.22
79527;BME280;68974;47.754;-3.364;2023-07-09T04:08:28;101864.06;;;18.08;83.07
79527;BME280;68974;47.754;-3.364;2023-07-09T04:10:54;101857.88;;;17.98;82.14
79527;BME280;68974;47.754;-3.364;2023-07-09T04:13:22;101855.09;;;17.79;81.75
79527;BME280;68974;47.754;-3.364;2023-07-09T04:15:47;101851.66;;;17.87;82.20
79527;BME280;68974;47.754;-3.364;2023-07-09T04:18:12;101842.91;;;17.94;82.44
79527;BME280;68974;47.754;-3.364;2023-07-09T04:20:38;101830.44;;;17.91;82.43
79527;BME280;68974;47.754;-3.364;2023-07-09T04:23:05;101826.72;;;17.82;82.43
79527;BME280;68974;47.754;-3.364;2023-07-09T04:25:30;101822.97;;;17.73;81.72
79527;BME280;68974;47.754;-3.364;2023-07-09T04:27:56;101817.72;;;17.71;81.73
79527;BME280;68974;47.754;-3.364;2023-07-09T04:30:21;101815.38;;;17.60;82.18
79527;BME280;68974;47.754;-3.364;2023-07-09T04:32:46;101822.59;;;17.61;82.54
79527;BME280;68974;47.754;-3.364;2023-07-09T04:35:13;101826.25;;;17.56;83.40
79527;BME280;68974;47.754;-3.364;2023-07-09T04:37:40;101857.06;;;17.60;83.57
79527;BME280;68974;47.754;-3.364;2023-07-09T04:40:07;101846.53;;;17.57;83.44
79527;BME280;68974;47.754;-3.364;2023-07-09T04:42:36;101836.25;;;17.57;83.47
79527;BME280;68974;47.754;-3.364;2023-07-09T04:45:02;101840.41;;;17.60;83.25
79527;BME280;68974;47.754;-3.364;2023-07-09T04:47:28;101824.41;;;17.70;83.51
79527;BME280;68974;47.754;-3.364;2023-07-09T04:49:54;101814.94;;;17.71;83.54
79527;BME280;68974;47.754;-3.364;2023-07-09T04:52:20;101821.31;;;17.72;83.52
79527;BME280;68974;47.754;-3.364;2023-07-09T04:54:47;101836.34;;;17.71;83.20
79527;BME280;68974;47.754;-3.364;2023-07-09T04:57:12;101826.66;;;17.68;83.25
79527;BME280;68974;47.754;-3.364;2023-07-09T04:59:38;101832.22;;;17.68;82.63
79527;BME280;68974;47.754;-3.364;2023-07-09T05:02:04;101836.41;;;17.66;82.53
79527;BME280;68974;47.754;-3.364;2023-07-09T05:04:30;101843.34;;;17.68;82.70
79527;BME280;68974;47.754;-3.364;2023-07-09T05:06:56;101842.94;;;17.75;82.60
79527;BME280;68974;47.754;-3.364;2023-07-09T05:09:22;101842.34;;;17.78;82.35
79527;BME280;68974;47.754;-3.364;2023-07-09T05:11:48;101863.44;;;17.79;82.37
79527;BME280;68974;47.754;-3.364;2023-07-09T05:14:14;101852.84;;;17.81;82.77
79527;BME280;68974;47.754;-3.364;2023-07-09T05:16:40;101862.94;;;17.77;82.22
79527;BME280;68974;47.754;-3.364;2023-07-09T05:19:07;101855.78;;;17.71;82.08
79527;BME280;68974;47.754;-3.364;2023-07-09T05:21:32;101857.88;;;17.79;81.69
79527;BME280;68974;47.754;-3.364;2023-07-09T05:23:58;101852.72;;;17.72;81.95
79527;BME280;68974;47.754;-3.364;2023-07-09T05:26:23;101840.16;;;17.75;81.94
79527;BME280;68974;47.754;-3.364;2023-07-09T05:28:48;101835.91;;;17.96;81.37
79527;BME280;68974;47.754;-3.364;2023-07-09T05:31:14;101843.63;;;17.99;80.89
79527;BME280;68974;47.754;-3.364;2023-07-09T05:33:40;101848.03;;;17.87;81.24
79527;BME280;68974;47.754;-3.364;2023-07-09T05:36:05;101856.84;;;17.75;81.97
79527;BME280;68974;47.754;-3.364;2023-07-09T05:38:32;101862.72;;;17.73;82.51
79527;BME280;68974;47.754;-3.364;2023-07-09T05:41:02;101843.63;;;17.67;83.31
79527;BME280;68974;47.754;-3.364;2023-07-09T05:43:29;101855.28;;;17.69;83.72
79527;BME280;68974;47.754;-3.364;2023-07-09T05:45:55;101851.81;;;17.77;83.27
79527;BME280;68974;47.754;-3.364;2023-07-09T05:48:20;101852.50;;;17.69;83.79
79527;BME280;68974;47.754;-3.364;2023-07-09T05:50:48;101855.78;;;17.71;83.47
79527;BME280;68974;47.754;-3.364;2023-07-09T05:53:14;101866.81;;;17.76;83.98
79527;BME280;68974;47.754;-3.364;2023-07-09T05:55:39;101859.53;;;17.80;84.26
79527;BME280;68974;47.754;-3.364;2023-07-09T05:58:04;101860.91;;;17.83;84.42
79527;BME280;68974;47.754;-3.364;2023-07-09T06:00:30;101863.81;;;17.91;84.18
79527;BME280;68974;47.754;-3.364;2023-07-09T06:02:55;101852.69;;;17.91;84.22
79527;BME280;68974;47.754;-3.364;2023-07-09T06:05:21;101865.06;;;17.99;84.35
79527;BME280;68974;47.754;-3.364;2023-07-09T06:07:47;101875.38;;;17.98;84.12
79527;BME280;68974;47.754;-3.364;2023-07-09T06:10:12;101887.09;;;17.95;84.03
79527;BME280;68974;47.754;-3.364;2023-07-09T06:12:39;101872.47;;;18.03;83.50
79527;BME280;68974;47.754;-3.364;2023-07-09T06:15:05;101881.34;;;18.05;83.84
79527;BME280;68974;47.754;-3.364;2023-07-09T06:17:31;101883.44;;;18.13;83.55
79527;BME280;68974;47.754;-3.364;2023-07-09T06:19:56;101881.63;;;18.23;84.29
79527;BME280;68974;47.754;-3.364;2023-07-09T06:22:22;101888.00;;;18.23;83.94
79527;BME280;68974;47.754;-3.364;2023-07-09T06:24:47;101891.09;;;18.22;83.71
79527;BME280;68974;47.754;-3.364;2023-07-09T06:27:12;101889.25;;;18.31;83.43
79527;BME280;68974;47.754;-3.364;2023-07-09T06:29:38;101892.25;;;18.34;83.42
79527;BME280;68974;47.754;-3.364;2023-07-09T06:32:04;101898.03;;;18.38;83.81
79527;BME280;68974;47.754;-3.364;2023-07-09T06:34:30;101905.97;;;18.44;83.44
79527;BME280;68974;47.754;-3.364;2023-07-09T06:36:56;101905.16;;;18.44;83.25
79527;BME280;68974;47.754;-3.364;2023-07-09T06:39:21;101905.06;;;18.49;83.29
79527;BME280;68974;47.754;-3.364;2023-07-09T06:41:47;101902.47;;;18.52;83.10
79527;BME280;68974;47.754;-3.364;2023-07-09T06:44:12;101901.59;;;18.57;82.72
79527;BME280;68974;47.754;-3.364;2023-07-09T06:46:39;101891.63;;;18.56;83.12
79527;BME280;68974;47.754;-3.364;2023-07-09T06:49:04;101887.09;;;18.60;82.90
79527;BME280;68974;47.754;-3.364;2023-07-09T06:51:32;101905.19;;;18.57;83.60
79527;BME280;68974;47.754;-3.364;2023-07-09T06:53:58;101899.03;;;18.60;83.26
79527;BME280;68974;47.754;-3.364;2023-07-09T06:56:24;101895.94;;;18.62;83.34
79527;BME280;68974;47.754;-3.364;2023-07-09T06:58:49;101895.03;;;18.67;83.52
79527;BME280;68974;47.754;-3.364;2023-07-09T07:01:15;101897.59;;;18.63;83.46
79527;BME280;68974;47.754;-3.364;2023-07-09T07:03:40;101913.69;;;18.66;83.59
79527;BME280;68974;47.754;-3.364;2023-07-09T07:06:06;101914.72;;;18.70;83.25
79527;BME280;68974;47.754;-3.364;2023-07-09T07:08:33;101908.63;;;18.68;82.92
79527;BME280;68974;47.754;-3.364;2023-07-09T07:11:00;101909.16;;;18.70;82.90
79527;BME280;68974;47.754;-3.364;2023-07-09T07:13:33;101901.31;;;18.72;83.07
79527;BME280;68974;47.754;-3.364;2023-07-09T07:16:01;101917.41;;;18.75;83.29
79527;BME280;68974;47.754;-3.364;2023-07-09T07:18:27;101929.56;;;18.79;82.56
79527;BME280;68974;47.754;-3.364;2023-07-09T07:20:53;101916.06;;;18.86;82.63
79527;BME280;68974;47.754;-3.364;2023-07-09T07:23:18;101915.75;;;19.01;82.60
79527;BME280;68974;47.754;-3.364;2023-07-09T07:25:45;101921.13;;;19.12;82.30
79527;BME280;68974;47.754;-3.364;2023-07-09T07:28:11;101911.22;;;19.19;81.94
79527;BME280;68974;47.754;-3.364;2023-07-09T07:30:36;101906.88;;;19.27;81.28
79527;BME280;68974;47.754;-3.364;2023-07-09T07:33:02;101916.78;;;19.46;80.40
79527;BME280;68974;47.754;-3.364;2023-07-09T07:35:27;101912.84;;;19.61;79.21
79527;BME280;68974;47.754;-3.364;2023-07-09T07:37:53;101911.50;;;19.59;79.22
79527;BME280;68974;47.754;-3.364;2023-07-09T07:40:18;101911.06;;;19.65;79.17
79527;BME280;68974;47.754;-3.364;2023-07-09T07:42:44;101919.22;;;19.62;79.03
79527;BME280;68974;47.754;-3.364;2023-07-09T07:45:09;101928.69;;;19.74;78.79
79527;BME280;68974;47.754;-3.364;2023-07-09T07:47:35;101932.41;;;19.83;77.93
79527;BME280;68974;47.754;-3.364;2023-07-09T07:50:00;101935.06;;;19.88;78.07
79527;BME280;68974;47.754;-3.364;2023-07-09T07:52:27;101932.78;;;19.90;77.55
79527;BME280;68974;47.754;-3.364;2023-07-09T07:54:52;101937.16;;;19.83;77.94
79527;BME280;68974;47.754;-3.364;2023-07-09T07:57:18;101933.41;;;19.87;77.58
79527;BME280;68974;47.754;-3.364;2023-07-09T07:59:43;101934.84;;;19.99;77.38
79527;BME280;68974;47.754;-3.364;2023-07-09T08:02:13;101939.88;;;19.97;77.32
79527;BME280;68974;47.754;-3.364;2023-07-09T08:04:40;101939.59;;;20.20;76.82
79527;BME280;68974;47.754;-3.364;2023-07-09T08:07:07;101934.53;;;20.22;75.43
79527;BME280;68974;47.754;-3.364;2023-07-09T08:09:34;101935.72;;;20.30;75.83
79527;BME280;68974;47.754;-3.364;2023-07-09T08:12:00;101930.28;;;20.47;75.31
79527;BME280;68974;47.754;-3.364;2023-07-09T08:14:25;101942.47;;;20.51;74.44
79527;BME280;68974;47.754;-3.364;2023-07-09T08:16:51;101946.66;;;20.40;73.82
79527;BME280;68974;47.754;-3.364;2023-07-09T08:19:19;101944.81;;;20.36;72.80
79527;BME280;68974;47.754;-3.364;2023-07-09T08:21:45;101948.19;;;20.46;72.98
79527;BME280;68974;47.754;-3.364;2023-07-09T08:24:10;101951.97;;;20.50;72.96
79527;BME280;68974;47.754;-3.364;2023-07-09T08:26:36;101952.84;;;20.59;71.56
79527;BME280;68974;47.754;-3.364;2023-07-09T08:29:03;101947.38;;;20.77;70.65
79527;BME280;68974;47.754;-3.364;2023-07-09T08:31:28;101947.41;;;20.85;69.37
79527;BME280;68974;47.754;-3.364;2023-07-09T08:33:54;101944.13;;;20.92;69.13
79527;BME280;68974;47.754;-3.364;2023-07-09T08:36:19;101951.50;;;20.88;68.61
79527;BME280;68974;47.754;-3.364;2023-07-09T08:38:44;101951.50;;;20.88;69.14
79527;BME280;68974;47.754;-3.364;2023-07-09T08:44:13;101956.28;;;21.18;68.06
79527;BME280;68974;47.754;-3.364;2023-07-09T08:52:55;101954.91;;;22.67;61.97
79527;BME280;68974;47.754;-3.364;2023-07-09T08:55:25;101951.44;;;22.70;61.06
79527;BME280;68974;47.754;-3.364;2023-07-09T08:57:57;101949.03;;;23.06;59.39
79527;BME280;68974;47.754;-3.364;2023-07-09T09:00:31;101939.16;;;23.00;59.08
79527;BME280;68974;47.754;-3.364;2023-07-09T09:05:55;101959.00;;;22.86;59.28
79527;BME280;68974;47.754;-3.364;2023-07-09T09:08:39;101964.16;;;22.76;59.70
79527;BME280;68974;47.754;-3.364;2023-07-09T09:11:21;101956.53;;;22.68;58.74
79527;BME280;68974;47.754;-3.364;2023-07-09T09:13:55;101955.91;;;22.71;59.87
79527;BME280;68974;47.754;-3.364;2023-07-09T09:16:27;101960.84;;;22.65;60.35
79527;BME280;68974;47.754;-3.364;2023-07-09T09:18:58;101962.19;;;23.14;61.71
79527;BME280;68974;47.754;-3.364;2023-07-09T09:21:37;101961.28;;;23.31;61.17
79527;BME280;68974;47.754;-3.364;2023-07-09T09:25:02;101954.78;;;23.10;58.80
79527;BME280;68974;47.754;-3.364;2023-07-09T09:27:20;101957.50;;;23.27;58.07
79527;BME280;68974;47.754;-3.364;2023-07-09T09:29:45;101947.63;;;24.00;57.46
79527;BME280;68974;47.754;-3.364;2023-07-09T09:32:23;101939.34;;;24.25;57.80
79527;BME280;68974;47.754;-3.364;2023-07-09T09:34:50;101948.44;;;24.42;55.08
79527;BME280;68974;47.754;-3.364;2023-07-09T09:37:30;101943.44;;;24.06;55.41
79527;BME280;68974;47.754;-3.364;2023-07-09T09:39:58;101951.88;;;23.65;55.93
79527;BME280;68974;47.754;-3.364;2023-07-09T09:42:24;101954.94;;;23.72;56.25
79527;BME280;68974;47.754;-3.364;2023-07-09T09:44:53;101965.66;;;23.99;55.14
79527;BME280;68974;47.754;-3.364;2023-07-09T09:47:19;101964.25;;;24.47;56.46
79527;BME280;68974;47.754;-3.364;2023-07-09T09:49:45;101962.19;;;24.68;56.22
79527;BME280;68974;47.754;-3.364;2023-07-09T09:52:17;101966.41;;;24.62;53.02
79527;BME280;68974;47.754;-3.364;2023-07-09T09:54:52;101966.63;;;24.90;52.22
79527;BME280;68974;47.754;-3.364;2023-07-09T09:57:22;101968.28;;;25.27;51.14
79527;BME280;68974;47.754;-3.364;2023-07-09T09:59:48;101972.41;;;24.73;51.53
79527;BME280;68974;47.754;-3.364;2023-07-09T10:02:21;101983.69;;;23.69;54.17
79527;BME280;68974;47.754;-3.364;2023-07-09T10:04:48;101986.78;;;23.47;56.74
79527;BME280;68974;47.754;-3.364;2023-07-09T10:07:37;101983.78;;;23.14;56.75
79527;BME280;68974;47.754;-3.364;2023-07-09T10:10:12;101990.16;;;23.23;58.92
79527;BME280;68974;47.754;-3.364;2023-07-09T10:12:44;101990.72;;;23.75;57.60
79527;BME280;68974;47.754;-3.364;2023-07-09T10:17:57;101986.00;;;24.38;53.88
79527;BME280;68974;47.754;-3.364;2023-07-09T10:25:53;101992.31;;;23.64;55.17
79527;BME280;68974;47.754;-3.364;2023-07-09T10:28:41;102011.63;;;23.19;56.07
79527;BME280;68974;47.754;-3.364;2023-07-09T10:31:41;101995.34;;;23.80;55.04
79527;BME280;68974;47.754;-3.364;2023-07-09T10:39:48;102002.13;;;24.41;55.48
79527;BME280;68974;47.754;-3.364;2023-07-09T10:42:22;101999.25;;;24.49;52.56
79527;BME280;68974;47.754;-3.364;2023-07-09T10:44:55;102003.78;;;23.71;53.95
79527;BME280;68974;47.754;-3.364;2023-07-09T10:47:30;102008.00;;;23.18;56.05
79527;BME280;68974;47.754;-3.364;2023-07-09T10:49:58;102011.97;;;24.05;54.22
79527;BME280;68974;47.754;-3.364;2023-07-09T10:52:28;102009.00;;;24.64;51.67
79527;BME280;68974;47.754;-3.364;2023-07-09T11:00:18;102017.19;;;24.57;50.46
79527;BME280;68974;47.754;-3.364;2023-07-09T11:02:45;102007.38;;;24.01;52.21
79527;BME280;68974;47.754;-3.364;2023-07-09T11:05:13;102014.81;;;24.47;51.88
79527;BME280;68974;47.754;-3.364;2023-07-09T11:07:40;102021.97;;;24.77;50.28
79527;BME280;68974;47.754;-3.364;2023-07-09T11:10:20;102019.91;;;24.33;50.17
79527;BME280;68974;47.754;-3.364;2023-07-09T11:12:59;102020.78;;;24.25;50.81
79527;BME280;68974;47.754;-3.364;2023-07-09T11:15:32;102018.75;;;23.84;52.60
79527;BME280;68974;47.754;-3.364;2023-07-09T11:18:07;102021.59;;;23.75;55.75
79527;BME280;68974;47.754;-3.364;2023-07-09T11:20:41;102025.84;;;23.81;54.81
79527;BME280;68974;47.754;-3.364;2023-07-09T11:23:19;102030.59;;;23.89;54.46
79527;BME280;68974;47.754;-3.364;2023-07-09T11:25:47;102023.97;;;23.94;53.58
79527;BME280;68974;47.754;-3.364;2023-07-09T11:28:13;102024.31;;;24.13;54.88
79527;BME280;68974;47.754;-3.364;2023-07-09T11:30:51;102022.16;;;24.19;53.77
79527;BME280;68974;47.754;-3.364;2023-07-09T11:33:27;102018.34;;;24.14;54.54
79527;BME280;68974;47.754;-3.364;2023-07-09T11:36:06;102017.00;;;24.21;53.58
79527;BME280;68974;47.754;-3.364;2023-07-09T11:38:41;102016.72;;;23.93;54.41
79527;BME280;68974;47.754;-3.364;2023-07-09T11:43:50;102018.66;;;24.22;53.31
79527;BME280;68974;47.754;-3.364;2023-07-09T11:46:26;102028.41;;;24.15;55.45
79527;BME280;68974;47.754;-3.364;2023-07-09T11:48:53;102014.78;;;24.05;55.48
79527;BME280;68974;47.754;-3.364;2023-07-09T11:51:40;102019.06;;;24.53;53.87
79527;BME280;68974;47.754;-3.364;2023-07-09T11:54:11;102016.66;;;24.96;52.08
79527;BME280;68974;47.754;-3.364;2023-07-09T11:56:37;102016.44;;;25.14;52.86
79527;BME280;68974;47.754;-3.364;2023-07-09T11:59:03;102019.28;;;24.48;51.77
79527;BME280;68974;47.754;-3.364;2023-07-09T12:01:40;102023.00;;;24.10;53.71
79527;BME280;68974;47.754;-3.364;2023-07-09T12:04:12;102024.09;;;23.97;54.19
79527;BME280;68974;47.754;-3.364;2023-07-09T12:06:40;102025.53;;;23.83;55.44
79527;BME280;68974;47.754;-3.364;2023-07-09T12:09:05;102015.75;;;23.89;56.24
79527;BME280;68974;47.754;-3.364;2023-07-09T12:11:33;102013.69;;;24.60;54.71
79527;BME280;68974;47.754;-3.364;2023-07-09T12:14:09;102019.97;;;25.47;53.34
79527;BME280;68974;47.754;-3.364;2023-07-09T12:16:38;102014.06;;;26.13;48.96
79527;BME280;68974;47.754;-3.364;2023-07-09T12:19:08;102016.25;;;26.59;49.78
79527;BME280;68974;47.754;-3.364;2023-07-09T12:21:38;102016.81;;;26.65;47.58
79527;BME280;68974;47.754;-3.364;2023-07-09T12:24:15;102022.81;;;25.83;47.70
79527;BME280;68974;47.754;-3.364;2023-07-09T12:26:43;102026.88;;;26.22;47.67
79527;BME280;68974;47.754;-3.364;2023-07-09T12:29:09;102017.28;;;25.87;46.07
79527;BME280;68974;47.754;-3.364;2023-07-09T12:31:35;102025.50;;;25.92;45.71
79527;BME280;68974;47.754;-3.364;2023-07-09T12:34:00;102020.91;;;26.00;44.60
79527;BME280;68974;47.754;-3.364;2023-07-09T12:36:27;102022.81;;;26.36;43.92
79527;BME280;68974;47.754;-3.364;2023-07-09T12:39:00;102023.28;;;26.38;43.47
79527;BME280;68974;47.754;-3.364;2023-07-09T12:41:41;102016.59;;;26.42;42.07
79527;BME280;68974;47.754;-3.364;2023-07-09T12:44:21;102018.94;;;26.40;42.56
79527;BME280;68974;47.754;-3.364;2023-07-09T12:46:51;102024.16;;;26.14;43.67
79527;BME280;68974;47.754;-3.364;2023-07-09T12:49:24;102025.50;;;25.92;47.23
79527;BME280;68974;47.754;-3.364;2023-07-09T12:51:50;102025.41;;;25.64;45.29
79527;BME280;68974;47.754;-3.364;2023-07-09T12:54:18;102030.28;;;25.31;47.51
79527;BME280;68974;47.754;-3.364;2023-07-09T12:56:45;102026.03;;;25.13;48.93
79527;BME280;68974;47.754;-3.364;2023-07-09T12:59:37;102028.88;;;25.25;49.80
79527;BME280;68974;47.754;-3.364;2023-07-09T13:04:37;102025.72;;;25.99;47.42
79527;BME280;68974;47.754;-3.364;2023-07-09T13:07:04;102031.28;;;25.59;48.71
79527;BME280;68974;47.754;-3.364;2023-07-09T13:09:30;102027.19;;;24.99;50.04
79527;BME280;68974;47.754;-3.364;2023-07-09T13:11:56;102026.28;;;24.54;52.04
79527;BME280;68974;47.754;-3.364;2023-07-09T13:14:31;102039.41;;;23.79;54.85
79527;BME280;68974;47.754;-3.364;2023-07-09T13:17:06;102047.13;;;23.53;57.27
79527;BME280;68974;47.754;-3.364;2023-07-09T13:19:32;102039.84;;;24.10;55.84
79527;BME280;68974;47.754;-3.364;2023-07-09T13:21:58;102024.75;;;24.77;52.77
79527;BME280;68974;47.754;-3.364;2023-07-09T13:24:25;102032.50;;;25.37;51.43
79527;BME280;68974;47.754;-3.364;2023-07-09T13:26:53;102026.03;;;26.10;50.29
79527;BME280;68974;47.754;-3.364;2023-07-09T13:29:19;102031.44;;;26.83;47.30